Terminal Aerodrome Forecast
Issued by NWS

Home | Current Version | Previous Version | Text Only | Print | Product List | Glossary On
Versions: 1 2 3 4 5 6 7 8 9 10 11 12 13 14 15 16 17 18 19 20 21
000
FTUS45 KABQ 160900 AAA
TAFROW
TAF AMD
KROW 160928Z 1609/1706 13005KT P6SM SCT015 BKN050
      TEMPO 1609/1612 BKN015
     FM161200 03005KT P6SM VCSH OVC015
      TEMPO 1612/1616 -RA
     FM161700 12006KT P6SM VCSH BKN035
     FM162000 16006KT P6SM FEW030 SCT045=

USA.gov is the U.S. government's official web portal to all federal, state and local government web resources and services.